sensor_id;sensor_type;location;lat;lon;timestamp;temperature;humidity
17992;DHT22;9121;50.926;5.340;2023-09-07T00:00:33;21.10;99.90
17992;DHT22;9121;50.926;5.340;2023-09-07T00:03:00;21.10;99.90
17992;DHT22;9121;50.926;5.340;2023-09-07T00:05:27;21.10;99.90
17992;DHT22;9121;50.926;5.340;2023-09-07T00:07:54;20.90;99.90
17992;DHT22;9121;50.926;5.340;2023-09-07T00:10:23;21.00;99.90
17992;DHT22;9121;50.926;5.340;2023-09-07T00:12:51;20.90;99.90
17992;DHT22;9121;50.926;5.340;2023-09-07T00:15:18;20.90;99.90
17992;DHT22;9121;50.926;5.340;2023-09-07T00:17:46;20.90;99.90
17992;DHT22;9121;50.926;5.340;2023-09-07T00:20:15;20.90;99.90
17992;DHT22;9121;50.926;5.340;2023-09-07T00:22:42;20.80;99.90
17992;DHT22;9121;50.926;5.340;2023-09-07T00:25:08;20.70;99.90
17992;DHT22;9121;50.926;5.340;2023-09-07T00:27:37;20.70;99.90
17992;DHT22;9121;50.926;5.340;2023-09-07T00:30:05;20.70;99.90
17992;DHT22;9121;50.926;5.340;2023-09-07T00:32:35;20.70;99.90
17992;DHT22;9121;50.926;5.340;2023-09-07T00:35:02;20.70;99.90
17992;DHT22;9121;50.926;5.340;2023-09-07T00:37:29;20.80;99.90
17992;DHT22;9121;50.926;5.340;2023-09-07T00:39:56;20.70;99.90
17992;DHT22;9121;50.926;5.340;2023-09-07T00:42:23;20.80;99.90
17992;DHT22;9121;50.926;5.340;2023-09-07T00:44:51;20.80;99.90
17992;DHT22;9121;50.926;5.340;2023-09-07T00:47:18;20.90;99.90
17992;DHT22;9121;50.926;5.340;2023-09-07T00:49:46;20.90;99.90
17992;DHT22;9121;50.926;5.340;2023-09-07T00:52:13;20.80;99.90
17992;DHT22;9121;50.926;5.340;2023-09-07T00:54:40;20.70;99.90
17992;DHT22;9121;50.926;5.340;2023-09-07T00:57:09;20.70;99.90
17992;DHT22;9121;50.926;5.340;2023-09-07T00:59:36;20.70;99.90
17992;DHT22;9121;50.926;5.340;2023-09-07T01:02:04;20.80;99.90
17992;DHT22;9121;50.926;5.340;2023-09-07T01:04:32;20.80;99.90
17992;DHT22;9121;50.926;5.340;2023-09-07T01:07:03;20.80;99.90
17992;DHT22;9121;50.926;5.340;2023-09-07T01:09:32;20.60;99.90
17992;DHT22;9121;50.926;5.340;2023-09-07T01:12:01;20.40;99.90
17992;DHT22;9121;50.926;5.340;2023-09-07T01:14:28;20.30;99.90
17992;DHT22;9121;50.926;5.340;2023-09-07T01:16:55;20.30;99.90
17992;DHT22;9121;50.926;5.340;2023-09-07T01:19:23;20.30;99.90
17992;DHT22;9121;50.926;5.340;2023-09-07T01:21:52;20.20;99.90
17992;DHT22;9121;50.926;5.340;2023-09-07T01:24:20;20.20;99.90
17992;DHT22;9121;50.926;5.340;2023-09-07T01:26:49;20.10;99.90
17992;DHT22;9121;50.926;5.340;2023-09-07T01:29:16;20.00;99.90
17992;DHT22;9121;50.926;5.340;2023-09-07T01:31:43;20.00;99.90
17992;DHT22;9121;50.926;5.340;2023-09-07T01:34:10;19.90;99.90
17992;DHT22;9121;50.926;5.340;2023-09-07T01:36:37;19.90;99.90
17992;DHT22;9121;50.926;5.340;2023-09-07T01:39:05;19.80;99.90
17992;DHT22;9121;50.926;5.340;2023-09-07T01:41:32;19.70;99.90
17992;DHT22;9121;50.926;5.340;2023-09-07T01:44:00;19.70;99.90
17992;DHT22;9121;50.926;5.340;2023-09-07T01:46:27;19.70;99.90
17992;DHT22;9121;50.926;5.340;2023-09-07T01:48:54;19.60;99.90
17992;DHT22;9121;50.926;5.340;2023-09-07T01:51:21;19.60;99.90
17992;DHT22;9121;50.926;5.340;2023-09-07T01:53:48;19.60;99.90
17992;DHT22;9121;50.926;5.340;2023-09-07T01:56:16;19.60;99.90
17992;DHT22;9121;50.926;5.340;2023-09-07T01:58:43;19.60;99.90
17992;DHT22;9121;50.926;5.340;2023-09-07T02:01:20;19.70;99.90
17992;DHT22;9121;50.926;5.340;2023-09-07T02:03:48;19.70;99.90
17992;DHT22;9121;50.926;5.340;2023-09-07T02:06:15;19.60;99.90
17992;DHT22;9121;50.926;5.340;2023-09-07T02:08:42;19.60;99.90
17992;DHT22;9121;50.926;5.340;2023-09-07T02:11:09;19.60;99.90
17992;DHT22;9121;50.926;5.340;2023-09-07T02:13:37;19.50;99.90
17992;DHT22;9121;50.926;5.340;2023-09-07T02:16:05;19.50;99.90
17992;DHT22;9121;50.926;5.340;2023-09-07T02:18:32;19.50;99.90
17992;DHT22;9121;50.926;5.340;2023-09-07T02:21:02;19.40;99.90
17992;DHT22;9121;50.926;5.340;2023-09-07T02:23:29;19.40;99.90
17992;DHT22;9121;50.926;5.340;2023-09-07T02:25:56;19.30;99.90
17992;DHT22;9121;50.926;5.340;2023-09-07T02:28:23;19.20;99.90
17992;DHT22;9121;50.926;5.340;2023-09-07T02:30:52;19.10;99.90
17992;DHT22;9121;50.926;5.340;2023-09-07T02:33:19;19.10;99.90
17992;DHT22;9121;50.926;5.340;2023-09-07T02:35:48;19.10;99.90
17992;DHT22;9121;50.926;5.340;2023-09-07T02:38:15;19.10;99.90
17992;DHT22;9121;50.926;5.340;2023-09-07T02:40:42;19.00;99.90
17992;DHT22;9121;50.926;5.340;2023-09-07T02:43:09;19.10;99.90
17992;DHT22;9121;50.926;5.340;2023-09-07T02:45:37;19.00;99.90
17992;DHT22;9121;50.926;5.340;2023-09-07T02:48:06;19.10;99.90
17992;DHT22;9121;50.926;5.340;2023-09-07T02:50:34;19.10;99.90
17992;DHT22;9121;50.926;5.340;2023-09-07T02:53:01;19.00;99.90
17992;DHT22;9121;50.926;5.340;2023-09-07T02:55:30;19.00;99.90
17992;DHT22;9121;50.926;5.340;2023-09-07T02:57:57;19.00;99.90
17992;DHT22;9121;50.926;5.340;2023-09-07T03:00:25;19.00;99.90
17992;DHT22;9121;50.926;5.340;2023-09-07T03:02:52;18.90;99.90
17992;DHT22;9121;50.926;5.340;2023-09-07T03:05:20;18.90;99.90
17992;DHT22;9121;50.926;5.340;2023-09-07T03:07:47;18.90;99.90
17992;DHT22;9121;50.926;5.340;2023-09-07T03:10:14;18.90;99.90
17992;DHT22;9121;50.926;5.340;2023-09-07T03:12:41;18.90;99.90
17992;DHT22;9121;50.926;5.340;2023-09-07T03:15:08;18.90;99.90
17992;DHT22;9121;50.926;5.340;2023-09-07T03:17:35;18.90;99.90
17992;DHT22;9121;50.926;5.340;2023-09-07T03:20:02;18.90;99.90
17992;DHT22;9121;50.926;5.340;2023-09-07T03:22:40;18.90;99.90
17992;DHT22;9121;50.926;5.340;2023-09-07T03:25:08;18.80;99.90
17992;DHT22;9121;50.926;5.340;2023-09-07T03:27:35;18.80;99.90
17992;DHT22;9121;50.926;5.340;2023-09-07T03:30:03;18.80;99.90
17992;DHT22;9121;50.926;5.340;2023-09-07T03:32:31;18.80;99.90
17992;DHT22;9121;50.926;5.340;2023-09-07T03:34:59;18.80;99.90
17992;DHT22;9121;50.926;5.340;2023-09-07T03:37:26;18.90;99.90
17992;DHT22;9121;50.926;5.340;2023-09-07T03:39:55;19.00;99.90
17992;DHT22;9121;50.926;5.340;2023-09-07T03:42:22;19.10;99.90
17992;DHT22;9121;50.926;5.340;2023-09-07T03:44:49;19.20;99.90
17992;DHT22;9121;50.926;5.340;2023-09-07T03:47:16;19.30;99.90
17992;DHT22;9121;50.926;5.340;2023-09-07T03:49:43;19.30;99.90
17992;DHT22;9121;50.926;5.340;2023-09-07T03:52:11;19.30;99.90
17992;DHT22;9121;50.926;5.340;2023-09-07T03:54:37;19.30;99.90
17992;DHT22;9121;50.926;5.340;2023-09-07T03:57:06;19.20;99.90
17992;DHT22;9121;50.926;5.340;2023-09-07T03:59:33;19.20;99.90
17992;DHT22;9121;50.926;5.340;2023-09-07T04:02:00;19.20;99.90
17992;DHT22;9121;50.926;5.340;2023-09-07T04:04:27;19.10;99.90
17992;DHT22;9121;50.926;5.340;2023-09-07T04:06:53;19.20;99.90
17992;DHT22;9121;50.926;5.340;2023-09-07T04:09:21;19.20;99.90
17992;DHT22;9121;50.926;5.340;2023-09-07T04:11:48;19.10;99.90
17992;DHT22;9121;50.926;5.340;2023-09-07T04:14:16;19.00;99.90
17992;DHT22;9121;50.926;5.340;2023-09-07T04:16:43;19.00;99.90
17992;DHT22;9121;50.926;5.340;2023-09-07T04:19:10;18.90;99.90
17992;DHT22;9121;50.926;5.340;2023-09-07T04:21:37;18.80;99.90
17992;DHT22;9121;50.926;5.340;2023-09-07T04:24:05;18.70;99.90
17992;DHT22;9121;50.926;5.340;2023-09-07T04:26:33;18.60;99.90
17992;DHT22;9121;50.926;5.340;2023-09-07T04:29:00;18.50;99.90
17992;DHT22;9121;50.926;5.340;2023-09-07T04:31:28;18.50;99.90
17992;DHT22;9121;50.926;5.340;2023-09-07T04:33:55;18.50;99.90
17992;DHT22;9121;50.926;5.340;2023-09-07T04:36:22;18.50;99.90
17992;DHT22;9121;50.926;5.340;2023-09-07T04:38:49;18.60;99.90
17992;DHT22;9121;50.926;5.340;2023-09-07T04:41:16;18.50;99.90
17992;DHT22;9121;50.926;5.340;2023-09-07T04:43:43;18.50;99.90
17992;DHT22;9121;50.926;5.340;2023-09-07T04:46:10;18.70;99.90
17992;DHT22;9121;50.926;5.340;2023-09-07T04:48:39;18.80;99.90
17992;DHT22;9121;50.926;5.340;2023-09-07T04:51:08;18.90;99.90
17992;DHT22;9121;50.926;5.340;2023-09-07T04:53:36;19.00;99.90
17992;DHT22;9121;50.926;5.340;2023-09-07T04:56:05;19.00;99.90
17992;DHT22;9121;50.926;5.340;2023-09-07T04:58:32;19.00;99.90
17992;DHT22;9121;50.926;5.340;2023-09-07T05:01:02;19.10;99.90
17992;DHT22;9121;50.926;5.340;2023-09-07T05:03:30;19.00;99.90
17992;DHT22;9121;50.926;5.340;2023-09-07T05:06:00;19.00;99.90
17992;DHT22;9121;50.926;5.340;2023-09-07T05:08:27;19.00;99.90
17992;DHT22;9121;50.926;5.340;2023-09-07T05:10:58;19.00;99.90
17992;DHT22;9121;50.926;5.340;2023-09-07T05:13:26;18.80;99.90
17992;DHT22;9121;50.926;5.340;2023-09-07T05:15:53;18.70;99.90
17992;DHT22;9121;50.926;5.340;2023-09-07T05:18:21;18.70;99.90
17992;DHT22;9121;50.926;5.340;2023-09-07T05:20:48;18.60;99.90
17992;DHT22;9121;50.926;5.340;2023-09-07T05:23:18;18.40;99.90
17992;DHT22;9121;50.926;5.340;2023-09-07T05:25:46;18.40;99.90
17992;DHT22;9121;50.926;5.340;2023-09-07T05:28:14;18.30;99.90
17992;DHT22;9121;50.926;5.340;2023-09-07T05:30:42;18.40;99.90
17992;DHT22;9121;50.926;5.340;2023-09-07T05:33:09;18.40;99.90
17992;DHT22;9121;50.926;5.340;2023-09-07T05:35:36;18.50;99.90
17992;DHT22;9121;50.926;5.340;2023-09-07T05:38:04;18.50;99.90
17992;DHT22;9121;50.926;5.340;2023-09-07T05:40:35;18.50;99.90
17992;DHT22;9121;50.926;5.340;2023-09-07T05:43:03;18.50;99.90
17992;DHT22;9121;50.926;5.340;2023-09-07T05:45:30;18.60;99.90
17992;DHT22;9121;50.926;5.340;2023-09-07T05:47:57;18.60;99.90
17992;DHT22;9121;50.926;5.340;2023-09-07T05:50:24;18.70;99.90
17992;DHT22;9121;50.926;5.340;2023-09-07T05:52:51;18.70;99.90
17992;DHT22;9121;50.926;5.340;2023-09-07T05:55:18;18.90;99.90
17992;DHT22;9121;50.926;5.340;2023-09-07T05:57:48;18.90;99.90
17992;DHT22;9121;50.926;5.340;2023-09-07T06:00:15;18.90;99.90
17992;DHT22;9121;50.926;5.340;2023-09-07T06:02:42;19.00;99.90
17992;DHT22;9121;50.926;5.340;2023-09-07T06:05:10;19.00;99.90
17992;DHT22;9121;50.926;5.340;2023-09-07T06:07:37;18.90;99.90
17992;DHT22;9121;50.926;5.340;2023-09-07T06:10:04;19.00;99.90
17992;DHT22;9121;50.926;5.340;2023-09-07T06:12:31;19.00;99.90
17992;DHT22;9121;50.926;5.340;2023-09-07T06:15:00;19.10;99.90
17992;DHT22;9121;50.926;5.340;2023-09-07T06:17:27;19.20;99.90
17992;DHT22;9121;50.926;5.340;2023-09-07T06:19:54;19.20;99.90
17992;DHT22;9121;50.926;5.340;2023-09-07T06:22:21;19.30;99.90
17992;DHT22;9121;50.926;5.340;2023-09-07T06:24:49;19.30;99.90
17992;DHT22;9121;50.926;5.340;2023-09-07T06:27:16;19.40;99.90
17992;DHT22;9121;50.926;5.340;2023-09-07T06:29:43;19.40;99.90
17992;DHT22;9121;50.926;5.340;2023-09-07T06:32:11;19.40;99.90
17992;DHT22;9121;50.926;5.340;2023-09-07T06:34:39;19.50;99.90
17992;DHT22;9121;50.926;5.340;2023-09-07T06:37:06;19.50;99.90
17992;DHT22;9121;50.926;5.340;2023-09-07T06:39:34;19.50;99.90
17992;DHT22;9121;50.926;5.340;2023-09-07T06:42:01;19.60;99.90
17992;DHT22;9121;50.926;5.340;2023-09-07T06:44:29;19.70;99.90
17992;DHT22;9121;50.926;5.340;2023-09-07T06:46:56;19.80;99.90
17992;DHT22;9121;50.926;5.340;2023-09-07T06:49:24;19.80;99.90
17992;DHT22;9121;50.926;5.340;2023-09-07T06:51:51;19.90;99.90
17992;DHT22;9121;50.926;5.340;2023-09-07T06:54:18;20.00;99.90
17992;DHT22;9121;50.926;5.340;2023-09-07T06:56:45;20.10;99.90
17992;DHT22;9121;50.926;5.340;2023-09-07T06:59:12;20.20;99.90
17992;DHT22;9121;50.926;5.340;2023-09-07T07:01:39;20.20;99.90
17992;DHT22;9121;50.926;5.340;2023-09-07T07:04:06;20.30;99.90
17992;DHT22;9121;50.926;5.340;2023-09-07T07:06:35;20.40;99.90
17992;DHT22;9121;50.926;5.340;2023-09-07T07:09:05;20.40;99.90
17992;DHT22;9121;50.926;5.340;2023-09-07T07:11:32;20.40;99.90
17992;DHT22;9121;50.926;5.340;2023-09-07T07:13:59;20.40;99.90
17992;DHT22;9121;50.926;5.340;2023-09-07T07:16:25;20.60;99.90
17992;DHT22;9121;50.926;5.340;2023-09-07T07:18:52;20.60;99.90
17992;DHT22;9121;50.926;5.340;2023-09-07T07:21:20;20.70;99.90
17992;DHT22;9121;50.926;5.340;2023-09-07T07:23:49;20.80;99.90
17992;DHT22;9121;50.926;5.340;2023-09-07T07:26:16;20.90;99.90
17992;DHT22;9121;50.926;5.340;2023-09-07T07:28:43;20.80;99.90
17992;DHT22;9121;50.926;5.340;2023-09-07T07:31:10;20.60;99.90
17992;DHT22;9121;50.926;5.340;2023-09-07T07:33:37;20.70;99.90
17992;DHT22;9121;50.926;5.340;2023-09-07T07:36:04;20.90;99.90
17992;DHT22;9121;50.926;5.340;2023-09-07T07:38:31;21.10;99.90
17992;DHT22;9121;50.926;5.340;2023-09-07T07:41:00;21.30;99.90
17992;DHT22;9121;50.926;5.340;2023-09-07T07:43:27;21.30;99.90
17992;DHT22;9121;50.926;5.340;2023-09-07T07:45:54;21.30;99.90
17992;DHT22;9121;50.926;5.340;2023-09-07T07:48:21;21.30;99.90
17992;DHT22;9121;50.926;5.340;2023-09-07T07:50:48;21.30;99.90
17992;DHT22;9121;50.926;5.340;2023-09-07T07:53:15;21.40;99.90
17992;DHT22;9121;50.926;5.340;2023-09-07T07:55:42;21.50;99.90
17992;DHT22;9121;50.926;5.340;2023-09-07T07:58:10;21.60;99.90
17992;DHT22;9121;50.926;5.340;2023-09-07T08:00:38;21.80;99.90
17992;DHT22;9121;50.926;5.340;2023-09-07T08:03:06;22.00;99.90
17992;DHT22;9121;50.926;5.340;2023-09-07T08:05:33;22.10;99.90
17992;DHT22;9121;50.926;5.340;2023-09-07T08:08:01;22.30;99.90
17992;DHT22;9121;50.926;5.340;2023-09-07T08:10:28;22.40;99.90
17992;DHT22;9121;50.926;5.340;2023-09-07T08:12:57;22.50;99.90
17992;DHT22;9121;50.926;5.340;2023-09-07T08:15:25;22.60;99.90
17992;DHT22;9121;50.926;5.340;2023-09-07T08:17:53;22.70;99.90
17992;DHT22;9121;50.926;5.340;2023-09-07T08:20:20;22.80;99.90
17992;DHT22;9121;50.926;5.340;2023-09-07T08:22:47;23.00;99.90
17992;DHT22;9121;50.926;5.340;2023-09-07T08:25:14;23.10;99.90
17992;DHT22;9121;50.926;5.340;2023-09-07T08:27:41;23.30;99.90
17992;DHT22;9121;50.926;5.340;2023-09-07T08:30:11;23.30;99.90
17992;DHT22;9121;50.926;5.340;2023-09-07T08:32:39;23.40;99.90
17992;DHT22;9121;50.926;5.340;2023-09-07T08:35:08;23.50;99.90
17992;DHT22;9121;50.926;5.340;2023-09-07T08:37:35;23.40;99.90
17992;DHT22;9121;50.926;5.340;2023-09-07T08:40:02;23.20;99.90
17992;DHT22;9121;50.926;5.340;2023-09-07T08:42:32;23.10;99.90
17992;DHT22;9121;50.926;5.340;2023-09-07T08:45:01;23.20;99.90
17992;DHT22;9121;50.926;5.340;2023-09-07T08:47:33;23.20;99.90
17992;DHT22;9121;50.926;5.340;2023-09-07T08:50:02;23.30;99.90
17992;DHT22;9121;50.926;5.340;2023-09-07T08:52:29;23.40;99.90
17992;DHT22;9121;50.926;5.340;2023-09-07T08:54:56;23.40;99.90
17992;DHT22;9121;50.926;5.340;2023-09-07T08:57:27;23.60;99.90
17992;DHT22;9121;50.926;5.340;2023-09-07T08:59:55;23.70;99.90
17992;DHT22;9121;50.926;5.340;2023-09-07T09:02:22;24.00;99.90
17992;DHT22;9121;50.926;5.340;2023-09-07T09:04:49;24.20;99.90
17992;DHT22;9121;50.926;5.340;2023-09-07T09:07:19;24.30;99.90
17992;DHT22;9121;50.926;5.340;2023-09-07T09:09:46;24.40;99.90
17992;DHT22;9121;50.926;5.340;2023-09-07T09:12:13;24.60;99.90
17992;DHT22;9121;50.926;5.340;2023-09-07T09:14:42;24.80;99.90
17992;DHT22;9121;50.926;5.340;2023-09-07T09:17:14;24.90;99.90
17992;DHT22;9121;50.926;5.340;2023-09-07T09:19:42;24.90;99.90
17992;DHT22;9121;50.926;5.340;2023-09-07T09:22:09;24.90;99.90
17992;DHT22;9121;50.926;5.340;2023-09-07T09:24:38;25.10;99.90
17992;DHT22;9121;50.926;5.340;2023-09-07T09:27:05;25.10;99.90
17992;DHT22;9121;50.926;5.340;2023-09-07T09:29:35;25.30;99.90
17992;DHT22;9121;50.926;5.340;2023-09-07T09:32:03;25.40;99.90
17992;DHT22;9121;50.926;5.340;2023-09-07T09:34:33;25.40;99.90
17992;DHT22;9121;50.926;5.340;2023-09-07T09:37:01;25.50;99.90
17992;DHT22;9121;50.926;5.340;2023-09-07T09:39:29;25.60;99.90
17992;DHT22;9121;50.926;5.340;2023-09-07T09:41:58;25.90;99.90
17992;DHT22;9121;50.926;5.340;2023-09-07T09:44:25;26.00;99.90
17992;DHT22;9121;50.926;5.340;2023-09-07T09:46:55;26.00;99.90
17992;DHT22;9121;50.926;5.340;2023-09-07T09:49:23;26.10;99.90
17992;DHT22;9121;50.926;5.340;2023-09-07T09:51:52;26.20;99.90
17992;DHT22;9121;50.926;5.340;2023-09-07T09:54:20;26.30;99.90
17992;DHT22;9121;50.926;5.340;2023-09-07T09:56:47;26.40;99.90
17992;DHT22;9121;50.926;5.340;2023-09-07T09:59:16;26.30;99.90
17992;DHT22;9121;50.926;5.340;2023-09-07T10:01:45;26.40;99.90
17992;DHT22;9121;50.926;5.340;2023-09-07T10:04:13;26.60;99.90
17992;DHT22;9121;50.926;5.340;2023-09-07T10:06:53;26.80;99.90
17992;DHT22;9121;50.926;5.340;2023-09-07T10:09:20;26.90;99.90
17992;DHT22;9121;50.926;5.340;2023-09-07T10:11:52;26.90;99.90
17992;DHT22;9121;50.926;5.340;2023-09-07T10:14:21;26.90;99.90
17992;DHT22;9121;50.926;5.340;2023-09-07T10:16:49;26.90;99.90
17992;DHT22;9121;50.926;5.340;2023-09-07T10:19:18;27.00;99.90
17992;DHT22;9121;50.926;5.340;2023-09-07T10:21:45;27.00;99.90
17992;DHT22;9121;50.926;5.340;2023-09-07T10:24:23;27.10;99.90
17992;DHT22;9121;50.926;5.340;2023-09-07T10:26:57;27.10;99.90
17992;DHT22;9121;50.926;5.340;2023-09-07T10:29:25;27.10;99.90
17992;DHT22;9121;50.926;5.340;2023-09-07T10:31:53;27.20;99.90
17992;DHT22;9121;50.926;5.340;2023-09-07T10:34:20;27.30;99.90
17992;DHT22;9121;50.926;5.340;2023-09-07T10:36:48;27.50;99.90
17992;DHT22;9121;50.926;5.340;2023-09-07T10:39:18;27.60;99.90
17992;DHT22;9121;50.926;5.340;2023-09-07T10:41:45;27.60;99.90
17992;DHT22;9121;50.926;5.340;2023-09-07T10:44:13;27.50;99.90
17992;DHT22;9121;50.926;5.340;2023-09-07T10:46:41;27.60;99.90
17992;DHT22;9121;50.926;5.340;2023-09-07T10:49:11;27.70;99.90
17992;DHT22;9121;50.926;5.340;2023-09-07T10:51:41;27.60;99.90
17992;DHT22;9121;50.926;5.340;2023-09-07T10:54:16;27.60;99.90
17992;DHT22;9121;50.926;5.340;2023-09-07T10:56:44;27.80;99.90
17992;DHT22;9121;50.926;5.340;2023-09-07T10:59:13;27.80;99.90
17992;DHT22;9121;50.926;5.340;2023-09-07T11:01:41;27.90;99.90
17992;DHT22;9121;50.926;5.340;2023-09-07T11:04:08;28.10;99.90
17992;DHT22;9121;50.926;5.340;2023-09-07T11:06:37;28.10;99.90
17992;DHT22;9121;50.926;5.340;2023-09-07T11:09:04;28.30;99.90
17992;DHT22;9121;50.926;5.340;2023-09-07T11:11:34;28.50;99.90
17992;DHT22;9121;50.926;5.340;2023-09-07T11:14:02;28.50;99.90
17992;DHT22;9121;50.926;5.340;2023-09-07T11:16:29;28.60;99.90
17992;DHT22;9121;50.926;5.340;2023-09-07T11:18:59;28.60;99.90
17992;DHT22;9121;50.926;5.340;2023-09-07T11:21:30;28.70;99.90
17992;DHT22;9121;50.926;5.340;2023-09-07T11:23:58;28.70;99.90
17992;DHT22;9121;50.926;5.340;2023-09-07T11:26:25;28.70;99.90
17992;DHT22;9121;50.926;5.340;2023-09-07T11:28:52;28.90;99.90
17992;DHT22;9121;50.926;5.340;2023-09-07T11:31:19;29.20;99.90
17992;DHT22;9121;50.926;5.340;2023-09-07T11:33:47;29.40;99.90
17992;DHT22;9121;50.926;5.340;2023-09-07T11:36:16;29.40;99.90
17992;DHT22;9121;50.926;5.340;2023-09-07T11:38:43;29.40;99.90
17992;DHT22;9121;50.926;5.340;2023-09-07T11:41:11;29.20;99.90
17992;DHT22;9121;50.926;5.340;2023-09-07T11:43:37;29.30;99.90
17992;DHT22;9121;50.926;5.340;2023-09-07T11:46:05;29.50;99.90
17992;DHT22;9121;50.926;5.340;2023-09-07T11:48:32;29.70;99.90
17992;DHT22;9121;50.926;5.340;2023-09-07T11:51:00;29.60;99.90
17992;DHT22;9121;50.926;5.340;2023-09-07T11:53:28;29.60;99.90
17992;DHT22;9121;50.926;5.340;2023-09-07T11:55:56;29.70;99.90
17992;DHT22;9121;50.926;5.340;2023-09-07T11:58:24;30.00;99.90
17992;DHT22;9121;50.926;5.340;2023-09-07T12:00:52;30.20;99.90
17992;DHT22;9121;50.926;5.340;2023-09-07T12:03:20;30.60;99.90
17992;DHT22;9121;50.926;5.340;2023-09-07T12:05:47;30.70;99.90
17992;DHT22;9121;50.926;5.340;2023-09-07T12:08:14;30.70;99.90
17992;DHT22;9121;50.926;5.340;2023-09-07T12:10:42;30.90;99.90
17992;DHT22;9121;50.926;5.340;2023-09-07T12:13:09;30.50;99.90
17992;DHT22;9121;50.926;5.340;2023-09-07T12:15:36;30.40;99.90
17992;DHT22;9121;50.926;5.340;2023-09-07T12:18:04;30.30;99.90
17992;DHT22;9121;50.926;5.340;2023-09-07T12:20:31;30.30;99.90
17992;DHT22;9121;50.926;5.340;2023-09-07T12:22:59;30.70;99.90
17992;DHT22;9121;50.926;5.340;2023-09-07T12:25:26;31.60;99.90
17992;DHT22;9121;50.926;5.340;2023-09-07T12:27:54;32.30;99.90
17992;DHT22;9121;50.926;5.340;2023-09-07T12:30:22;32.70;99.90
17992;DHT22;9121;50.926;5.340;2023-09-07T12:32:50;33.20;99.90
17992;DHT22;9121;50.926;5.340;2023-09-07T12:35:17;33.40;99.40
17992;DHT22;9121;50.926;5.340;2023-09-07T12:37:45;33.50;99.10
17992;DHT22;9121;50.926;5.340;2023-09-07T12:40:12;33.20;98.20
17992;DHT22;9121;50.926;5.340;2023-09-07T12:42:40;32.90;98.90
17992;DHT22;9121;50.926;5.340;2023-09-07T12:45:10;33.10;99.20
17992;DHT22;9121;50.926;5.340;2023-09-07T12:47:38;33.00;98.80
17992;DHT22;9121;50.926;5.340;2023-09-07T12:50:05;33.00;99.30
17992;DHT22;9121;50.926;5.340;2023-09-07T12:52:33;33.70;98.40
17992;DHT22;9121;50.926;5.340;2023-09-07T12:55:02;34.30;97.40
17992;DHT22;9121;50.926;5.340;2023-09-07T12:57:29;34.30;97.30
17992;DHT22;9121;50.926;5.340;2023-09-07T12:59:56;34.60;97.00
17992;DHT22;9121;50.926;5.340;2023-09-07T13:02:24;34.80;96.60
17992;DHT22;9121;50.926;5.340;2023-09-07T13:04:53;34.30;96.50
17992;DHT22;9121;50.926;5.340;2023-09-07T13:07:20;34.10;96.70
17992;DHT22;9121;50.926;5.340;2023-09-07T13:09:47;33.90;96.40
17992;DHT22;9121;50.926;5.340;2023-09-07T13:12:15;33.80;96.80
17992;DHT22;9121;50.926;5.340;2023-09-07T13:14:42;33.50;97.20
17992;DHT22;9121;50.926;5.340;2023-09-07T13:17:12;32.90;97.80
17992;DHT22;9121;50.926;5.340;2023-09-07T13:19:41;32.80;97.70
17992;DHT22;9121;50.926;5.340;2023-09-07T13:22:09;32.90;98.10
17992;DHT22;9121;50.926;5.340;2023-09-07T13:24:37;33.10;98.30
17992;DHT22;9121;50.926;5.340;2023-09-07T13:27:04;33.10;98.00
17992;DHT22;9121;50.926;5.340;2023-09-07T13:29:31;32.80;98.70
17992;DHT22;9121;50.926;5.340;2023-09-07T13:31:58;33.00;98.50
17992;DHT22;9121;50.926;5.340;2023-09-07T13:34:25;33.20;98.30
17992;DHT22;9121;50.926;5.340;2023-09-07T13:36:54;33.50;97.80
17992;DHT22;9121;50.926;5.340;2023-09-07T13:39:21;33.50;97.70
17992;DHT22;9121;50.926;5.340;2023-09-07T13:41:48;33.60;97.70
17992;DHT22;9121;50.926;5.340;2023-09-07T13:44:15;33.80;97.40
17992;DHT22;9121;50.926;5.340;2023-09-07T13:46:43;33.80;97.30
17992;DHT22;9121;50.926;5.340;2023-09-07T13:49:10;33.90;97.20
17992;DHT22;9121;50.926;5.340;2023-09-07T13:51:37;34.10;96.70
17992;DHT22;9121;50.926;5.340;2023-09-07T13:54:07;34.30;96.50
17992;DHT22;9121;50.926;5.340;2023-09-07T13:56:34;34.30;96.50
17992;DHT22;9121;50.926;5.340;2023-09-07T13:59:01;34.50;96.30
17992;DHT22;9121;50.926;5.340;2023-09-07T14:01:28;35.10;96.10
17992;DHT22;9121;50.926;5.340;2023-09-07T14:03:55;35.10;95.50
17992;DHT22;9121;50.926;5.340;2023-09-07T14:06:22;34.70;96.00
17992;DHT22;9121;50.926;5.340;2023-09-07T14:08:50;34.80;96.10
17992;DHT22;9121;50.926;5.340;2023-09-07T14:11:18;35.20;95.70
17992;DHT22;9121;50.926;5.340;2023-09-07T14:13:46;35.80;95.50
17992;DHT22;9121;50.926;5.340;2023-09-07T14:16:15;36.00;95.10
17992;DHT22;9121;50.926;5.340;2023-09-07T14:18:42;35.90;94.90
17992;DHT22;9121;50.926;5.340;2023-09-07T14:21:09;36.10;94.70
17992;DHT22;9121;50.926;5.340;2023-09-07T14:23:36;36.20;94.50
17992;DHT22;9121;50.926;5.340;2023-09-07T14:26:03;36.10;94.50
17992;DHT22;9121;50.926;5.340;2023-09-07T14:28:32;36.40;94.40
17992;DHT22;9121;50.926;5.340;2023-09-07T14:30:59;36.60;94.10
17992;DHT22;9121;50.926;5.340;2023-09-07T14:33:28;36.30;93.90
17992;DHT22;9121;50.926;5.340;2023-09-07T14:35:55;35.80;94.00
17992;DHT22;9121;50.926;5.340;2023-09-07T14:38:22;35.70;94.10
17992;DHT22;9121;50.926;5.340;2023-09-07T14:40:52;36.10;93.80
17992;DHT22;9121;50.926;5.340;2023-09-07T14:43:20;35.80;93.90
17992;DHT22;9121;50.926;5.340;2023-09-07T14:45:49;36.00;93.70
17992;DHT22;9121;50.926;5.340;2023-09-07T14:48:16;36.30;93.60
17992;DHT22;9121;50.926;5.340;2023-09-07T14:50:43;36.50;93.40
17992;DHT22;9121;50.926;5.340;2023-09-07T14:53:10;36.20;93.60
17992;DHT22;9121;50.926;5.340;2023-09-07T14:55:37;36.20;93.40
17992;DHT22;9121;50.926;5.340;2023-09-07T14:58:04;36.60;92.90
17992;DHT22;9121;50.926;5.340;2023-09-07T15:00:34;36.80;92.50
17992;DHT22;9121;50.926;5.340;2023-09-07T15:03:03;37.00;92.40
17992;DHT22;9121;50.926;5.340;2023-09-07T15:05:30;36.90;92.30
17992;DHT22;9121;50.926;5.340;2023-09-07T15:07:57;37.00;92.10
17992;DHT22;9121;50.926;5.340;2023-09-07T15:10:28;36.70;91.90
17992;DHT22;9121;50.926;5.340;2023-09-07T15:12:55;35.70;92.60
17992;DHT22;9121;50.926;5.340;2023-09-07T15:15:22;34.80;93.40
17992;DHT22;9121;50.926;5.340;2023-09-07T15:17:49;34.00;93.90
17992;DHT22;9121;50.926;5.340;2023-09-07T15:20:17;33.40;94.40
17992;DHT22;9121;50.926;5.340;2023-09-07T15:22:44;33.00;95.00
17992;DHT22;9121;50.926;5.340;2023-09-07T15:25:11;32.70;95.50
17992;DHT22;9121;50.926;5.340;2023-09-07T15:27:38;32.50;95.30
17992;DHT22;9121;50.926;5.340;2023-09-07T15:30:06;32.40;95.90
17992;DHT22;9121;50.926;5.340;2023-09-07T15:32:33;32.30;96.20
17992;DHT22;9121;50.926;5.340;2023-09-07T15:35:00;32.20;95.70
17992;DHT22;9121;50.926;5.340;2023-09-07T15:37:29;32.10;96.20
17992;DHT22;9121;50.926;5.340;2023-09-07T15:39:55;32.10;96.00
17992;DHT22;9121;50.926;5.340;2023-09-07T15:42:22;31.80;95.90
17992;DHT22;9121;50.926;5.340;2023-09-07T15:44:49;31.50;96.10
17992;DHT22;9121;50.926;5.340;2023-09-07T15:47:16;31.20;96.30